Time;durP1;ratioP1;P1;durP2;ratioP2;P2;SDS_P1;SDS_P2;PMS_P1;PMS_P2;Temp;Humidity;BMP_temperature;BMP_pressure;BME280_temperature;BME280_humidity;BME280_pressure;Samples;Min_cycle;Max_cycle;Signal;HPM_P1;HPM_P2
2024/03/15 00:02:24;;;;;;;4.17;3.77;;;10.60;99.90;;;;;;5011279;28;20192;-86
2024/03/15 00:04:51;;;;;;;2.97;2.78;;;11.10;99.90;;;;;;5014175;28;20216;-86
2024/03/15 00:07:18;;;;;;;3.30;3.00;;;10.80;99.90;;;;;;5012668;28;20655;-86
2024/03/15 00:09:44;;;;;;;4.13;3.63;;;11.20;99.90;;;;;;5007023;28;20454;-86
2024/03/15 00:12:09;;;;;;;4.23;3.10;;;11.30;99.90;;;;;;5009605;28;20185;-86
2024/03/15 00:14:36;;;;;;;4.00;3.60;;;10.90;99.90;;;;;;5009735;28;20196;-86
2024/03/15 00:17:01;;;;;;;3.40;3.10;;;10.90;99.90;;;;;;5013217;28;20669;-86
2024/03/15 00:19:27;;;;;;;3.50;3.20;;;10.80;99.90;;;;;;5011768;28;20361;-86
2024/03/15 00:21:52;;;;;;;3.70;3.40;;;11.20;99.90;;;;;;5009022;28;20193;-86
2024/03/15 00:24:18;;;;;;;3.00;2.80;;;10.90;99.90;;;;;;5008986;28;20319;-86
2024/03/15 00:26:43;;;;;;;3.57;3.27;;;10.50;99.90;;;;;;5011549;28;20244;-86
2024/03/15 00:29:12;;;;;;;3.77;3.37;;;11.00;99.90;;;;;;5002746;28;20193;-85
2024/03/15 00:31:40;;;;;;;3.30;3.00;;;11.20;99.90;;;;;;5011931;28;20193;-85
2024/03/15 00:34:06;;;;;;;3.35;3.00;;;10.80;99.90;;;;;;5008068;28;20638;-85
2024/03/15 00:36:33;;;;;;;3.53;3.10;;;11.20;99.90;;;;;;5012512;28;20230;-86
2024/03/15 00:38:58;;;;;;;3.10;2.80;;;11.30;99.90;;;;;;5011024;28;20185;-87
2024/03/15 00:41:24;;;;;;;4.17;3.30;;;10.50;99.90;;;;;;5007848;28;20199;-86
2024/03/15 00:43:51;;;;;;;3.50;3.10;;;11.20;99.90;;;;;;5010905;28;20216;-86
2024/03/15 00:46:17;;;;;;;5.40;3.42;;;10.80;99.90;;;;;;5005060;28;20373;-87
2024/03/15 00:48:43;;;;;;;3.27;2.97;;;10.80;99.90;;;;;;5009225;28;20208;-86
2024/03/15 00:51:09;;;;;;;3.57;3.27;;;10.80;99.90;;;;;;5012697;28;20493;-86
2024/03/15 00:53:38;;;;;;;3.90;3.50;;;10.60;99.90;;;;;;5011880;28;20448;-87
2024/03/15 00:56:07;;;;;;;4.00;3.55;;;10.80;99.90;;;;;;5010929;28;20479;-86
2024/03/15 00:58:33;;;;;;;3.83;2.70;;;11.00;99.90;;;;;;5012397;28;20273;-86
2024/03/15 01:01:00;;;;;;;4.40;2.87;;;10.80;99.90;;;;;;5006845;28;20226;-86
2024/03/15 01:03:25;;;;;;;4.55;4.15;;;10.60;99.90;;;;;;5010507;28;20201;-86
2024/03/15 01:05:52;;;;;;;3.37;3.07;;;11.20;99.90;;;;;;5012425;28;20208;-87
2024/03/15 01:08:21;;;;;;;3.50;3.20;;;10.30;99.90;;;;;;4995512;28;20193;-87
2024/03/15 01:10:46;;;;;;;2.85;2.65;;;11.00;99.90;;;;;;5008916;28;20193;-86
2024/03/15 01:13:15;;;;;;;4.43;3.00;;;10.80;99.90;;;;;;5011341;28;20187;-85
2024/03/15 01:15:42;;;;;;;3.33;3.08;;;11.10;99.90;;;;;;5008664;28;20216;-86
2024/03/15 01:18:09;;;;;;;5.10;3.05;;;11.10;99.90;;;;;;5002369;28;20187;-86
2024/03/15 01:20:34;;;;;;;3.00;2.50;;;10.90;99.90;;;;;;5008751;28;20567;-86
2024/03/15 01:23:00;;;;;;;4.80;2.70;;;11.10;99.90;;;;;;5007680;28;20195;-86
2024/03/15 01:25:29;;;;;;;3.30;3.00;;;11.10;99.90;;;;;;5007983;28;20184;-86
2024/03/15 01:27:57;;;;;;;3.00;2.80;;;10.60;99.90;;;;;;5024003;28;20369;-86
2024/03/15 01:30:23;;;;;;;3.33;3.03;;;11.20;99.90;;;;;;5007383;28;20192;-86
2024/03/15 01:32:49;;;;;;;3.67;3.30;;;11.00;99.90;;;;;;5010623;28;20304;-86
2024/03/15 01:35:16;;;;;;;2.90;2.60;;;10.70;99.90;;;;;;5010814;28;20453;-85
2024/03/15 01:37:42;;;;;;;2.50;2.30;;;11.00;99.90;;;;;;5005221;28;20634;-85
2024/03/15 01:40:09;;;;;;;3.23;2.97;;;10.90;99.90;;;;;;5006629;28;20443;-86
2024/03/15 01:42:35;;;;;;;4.43;3.15;;;11.00;99.90;;;;;;5008922;28;20439;-87
2024/03/15 01:45:00;;;;;;;3.47;3.17;;;11.50;99.90;;;;;;5004875;28;20208;-86
2024/03/15 01:47:28;;;;;;;2.70;2.50;;;11.50;99.90;;;;;;5009193;28;20239;-86
2024/03/15 01:49:56;;;;;;;3.75;2.63;;;11.50;99.90;;;;;;5007828;28;20396;-85
2024/03/15 01:52:22;;;;;;;3.15;2.85;;;11.10;99.90;;;;;;5003352;28;20740;-87
2024/03/15 01:54:48;;;;;;;2.88;2.30;;;11.10;99.90;;;;;;5009735;28;20196;-86
2024/03/15 01:57:17;;;;;;;3.30;2.83;;;11.00;99.90;;;;;;5009611;28;20285;-87
2024/03/15 01:59:43;;;;;;;2.75;2.55;;;11.20;99.90;;;;;;5005332;28;20484;-85
2024/03/15 02:02:10;;;;;;;2.90;2.45;;;10.70;99.90;;;;;;5008976;28;20608;-87
2024/03/15 02:04:36;;;;;;;2.72;2.53;;;11.50;99.90;;;;;;5018569;28;20273;-85
2024/03/15 02:07:02;;;;;;;3.22;2.92;;;11.10;99.90;;;;;;5005228;28;20247;-86
2024/03/15 02:09:28;;;;;;;2.95;2.47;;;10.60;99.90;;;;;;5026798;28;20252;-87
2024/03/15 02:11:57;;;;;;;2.60;2.30;;;10.70;99.90;;;;;;5007765;28;20200;-87
2024/03/15 02:14:23;;;;;;;4.95;2.92;;;11.50;99.90;;;;;;5010360;28;20494;-87
2024/03/15 02:16:49;;;;;;;2.87;2.60;;;11.00;99.90;;;;;;5011309;28;20244;-87
2024/03/15 02:19:15;;;;;;;3.50;3.17;;;10.50;99.90;;;;;;5007823;28;20423;-87
2024/03/15 02:21:41;;;;;;;3.20;3.00;;;11.10;99.90;;;;;;5011424;28;20227;-86
2024/03/15 02:24:06;;;;;;;2.80;2.60;;;11.20;99.90;;;;;;5008301;28;20208;-87
2024/03/15 02:26:33;;;;;;;5.00;2.90;;;10.80;99.90;;;;;;5010326;28;20205;-87
2024/03/15 02:28:59;;;;;;;3.13;2.92;;;10.90;99.90;;;;;;5007942;28;20216;-87
2024/03/15 02:31:25;;;;;;;3.13;2.83;;;10.80;99.90;;;;;;5006102;28;20268;-87
2024/03/15 02:33:51;;;;;;;3.13;2.90;;;11.00;99.90;;;;;;5010667;28;20203;-86
2024/03/15 02:36:16;;;;;;;6.57;3.13;;;10.60;99.90;;;;;;5008404;28;20220;-86
2024/03/15 02:38:42;;;;;;;3.87;3.57;;;10.60;99.90;;;;;;5005761;28;20190;-86
2024/03/15 02:41:13;;;;;;;4.20;3.07;;;11.00;99.90;;;;;;5010819;28;20196;-86
2024/03/15 02:43:42;;;;;;;4.55;2.83;;;10.60;99.90;;;;;;5007322;28;20523;-85
2024/03/15 02:46:07;;;;;;;3.30;3.03;;;10.60;99.90;;;;;;5023146;28;20681;-86
2024/03/15 02:48:38;;;;;;;3.63;2.80;;;10.90;99.90;;;;;;5009508;28;20287;-86
2024/03/15 02:51:05;;;;;;;3.47;2.88;;;10.50;99.90;;;;;;5010584;28;20446;-86
2024/03/15 02:53:30;;;;;;;3.05;2.70;;;9.90;99.90;;;;;;5009835;28;20195;-86
2024/03/15 02:55:56;;;;;;;2.93;2.60;;;10.60;99.90;;;;;;5006057;28;20769;-85
2024/03/15 02:58:22;;;;;;;2.87;2.67;;;9.90;99.90;;;;;;5011358;28;20212;-86
2024/03/15 03:00:47;;;;;;;3.37;3.00;;;10.50;99.90;;;;;;5015362;28;20623;-86
2024/03/15 03:03:13;;;;;;;3.40;2.67;;;10.80;99.90;;;;;;5013485;28;20209;-85
2024/03/15 03:05:41;;;;;;;3.07;2.77;;;10.60;99.90;;;;;;5008361;28;20216;-86
2024/03/15 03:08:07;;;;;;;3.42;3.13;;;10.80;99.90;;;;;;5015354;28;20176;-86
2024/03/15 03:10:32;;;;;;;3.63;3.33;;;10.70;99.90;;;;;;5011746;28;20649;-86
2024/03/15 03:13:00;;;;;;;3.00;2.80;;;10.40;99.90;;;;;;5012815;28;20177;-86
2024/03/15 03:15:25;;;;;;;4.75;3.20;;;10.40;99.90;;;;;;5013782;28;20830;-86
2024/03/15 03:17:51;;;;;;;4.13;3.00;;;10.00;99.90;;;;;;5012136;28;20188;-86
2024/03/15 03:20:20;;;;;;;3.17;2.87;;;10.20;99.90;;;;;;5017621;28;20191;-86
2024/03/15 03:22:48;;;;;;;3.15;2.72;;;10.70;99.90;;;;;;5011053;28;20270;-86
2024/03/15 03:25:14;;;;;;;3.50;2.60;;;10.10;99.90;;;;;;5015628;28;20234;-86
2024/03/15 03:27:40;;;;;;;3.50;3.00;;;10.00;99.90;;;;;;5007963;28;20268;-85
2024/03/15 03:30:07;;;;;;;2.90;2.70;;;10.20;99.90;;;;;;5012012;28;20204;-86
2024/03/15 03:32:32;;;;;;;3.17;2.60;;;10.10;99.90;;;;;;5011521;28;20192;-85
2024/03/15 03:34:58;;;;;;;2.80;2.60;;;9.90;99.90;;;;;;5012234;28;20193;-86
2024/03/15 03:37:23;;;;;;;4.20;2.83;;;10.60;99.90;;;;;;5011538;28;20281;-85
2024/03/15 03:39:49;;;;;;;3.50;3.20;;;9.70;99.90;;;;;;5009642;28;20190;-86
2024/03/15 03:42:14;;;;;;;5.03;3.07;;;10.20;99.90;;;;;;5010483;28;20211;-86
2024/03/15 03:44:41;;;;;;;2.80;2.60;;;10.30;99.90;;;;;;5010681;28;20259;-86
2024/03/15 03:47:07;;;;;;;2.70;2.50;;;10.50;99.90;;;;;;5015217;28;20211;-86
2024/03/15 03:49:33;;;;;;;3.90;2.60;;;10.50;99.90;;;;;;5014057;28;20230;-86
2024/03/15 03:51:58;;;;;;;2.87;2.40;;;9.80;99.90;;;;;;5010666;28;20195;-86
2024/03/15 03:54:27;;;;;;;3.47;2.80;;;10.30;99.90;;;;;;5010306;28;20690;-86
2024/03/15 03:56:52;;;;;;;2.70;2.50;;;10.60;99.90;;;;;;5014289;28;20216;-86
2024/03/15 03:59:18;;;;;;;4.23;2.50;;;10.70;99.90;;;;;;5010976;28;20566;-86
2024/03/15 04:01:43;;;;;;;4.30;2.23;;;10.30;99.90;;;;;;5012654;28;20777;-87
2024/03/15 04:04:10;;;;;;;2.87;2.67;;;10.60;99.90;;;;;;5010734;28;20205;-86
2024/03/15 04:06:35;;;;;;;3.13;2.88;;;10.00;99.90;;;;;;5010146;28;20208;-87
2024/03/15 04:09:01;;;;;;;2.60;2.40;;;10.00;99.90;;;;;;5008782;28;20184;-86
2024/03/15 04:11:27;;;;;;;2.87;2.63;;;10.40;99.90;;;;;;5011925;28;20181;-86
2024/03/15 04:13:52;;;;;;;2.60;2.40;;;10.60;99.90;;;;;;5012075;28;20444;-86
2024/03/15 04:16:24;;;;;;;4.50;2.30;;;10.30;99.90;;;;;;5012039;28;20221;-86
2024/03/15 04:18:50;;;;;;;6.40;2.60;;;10.50;99.90;;;;;;5013443;28;20251;-86
2024/03/15 04:21:16;;;;;;;3.30;3.00;;;10.80;99.90;;;;;;5012451;28;20226;-86
2024/03/15 04:23:42;;;;;;;2.80;2.20;;;10.50;99.90;;;;;;5010032;28;20669;-86
2024/03/15 04:26:07;;;;;;;3.13;2.30;;;10.60;99.90;;;;;;5012792;28;20267;-86
2024/03/15 04:28:34;;;;;;;2.20;2.00;;;10.60;99.90;;;;;;5014793;28;20192;-86
2024/03/15 04:31:00;;;;;;;3.05;2.83;;;11.10;99.90;;;;;;5012405;28;20179;-86
2024/03/15 04:33:25;;;;;;;3.00;2.50;;;11.10;99.90;;;;;;5022828;28;20197;-86
2024/03/15 04:35:51;;;;;;;2.73;2.10;;;10.60;99.90;;;;;;5014024;28;20208;-86
2024/03/15 04:38:19;;;;;;;2.80;2.20;;;10.80;99.90;;;;;;5011386;28;20204;-86
2024/03/15 04:40:45;;;;;;;2.70;2.45;;;10.90;99.90;;;;;;5016966;28;20193;-86
2024/03/15 04:43:11;;;;;;;2.70;2.50;;;11.00;99.90;;;;;;5010492;28;20218;-86
2024/03/15 04:45:36;;;;;;;2.80;2.60;;;11.20;99.90;;;;;;5008587;28;20584;-86
2024/03/15 04:48:02;;;;;;;3.28;2.85;;;11.00;99.90;;;;;;5010434;28;20185;-86
2024/03/15 04:50:28;;;;;;;3.87;3.10;;;11.20;99.90;;;;;;5012319;28;20190;-86
2024/03/15 04:52:53;;;;;;;3.97;2.30;;;10.70;99.90;;;;;;5010378;28;20273;-86
2024/03/15 04:55:22;;;;;;;3.77;2.90;;;11.40;99.90;;;;;;5011611;28;20201;-86
2024/03/15 04:57:47;;;;;;;2.90;2.50;;;11.20;99.90;;;;;;5010366;28;20193;-85
2024/03/15 05:00:19;;;;;;;2.83;2.30;;;11.70;99.90;;;;;;5010369;28;20192;-87
2024/03/15 05:02:48;;;;;;;3.22;2.70;;;11.10;99.90;;;;;;5009945;28;20192;-87
2024/03/15 05:05:15;;;;;;;2.42;2.10;;;11.40;99.90;;;;;;5011346;28;20219;-86
2024/03/15 05:07:41;;;;;;;3.10;2.50;;;10.80;99.90;;;;;;5015059;28;20527;-86
2024/03/15 05:10:07;;;;;;;4.07;2.50;;;11.30;99.90;;;;;;5012270;28;20193;-87
2024/03/15 05:12:33;;;;;;;2.90;2.60;;;11.20;99.90;;;;;;5008022;28;20189;-87
2024/03/15 05:14:58;;;;;;;3.35;2.75;;;11.30;99.90;;;;;;5008287;28;20414;-87
2024/03/15 05:17:24;;;;;;;3.73;2.80;;;11.50;99.90;;;;;;5012513;28;20205;-86
2024/03/15 05:19:49;;;;;;;2.80;2.30;;;11.50;99.90;;;;;;5011528;28;20804;-86
2024/03/15 05:22:15;;;;;;;2.90;2.60;;;11.10;99.90;;;;;;5010101;28;20212;-85
2024/03/15 05:24:40;;;;;;;3.40;2.20;;;10.90;99.90;;;;;;5009968;28;20205;-85
2024/03/15 05:27:06;;;;;;;2.67;2.47;;;11.40;99.90;;;;;;5014025;28;20622;-85
2024/03/15 05:29:32;;;;;;;3.13;2.30;;;11.00;99.90;;;;;;5010724;28;20677;-86
2024/03/15 05:31:58;;;;;;;3.10;2.72;;;11.30;99.90;;;;;;5012397;28;20192;-86
2024/03/15 05:34:24;;;;;;;2.83;2.27;;;10.80;99.90;;;;;;5010562;28;20194;-86
2024/03/15 05:36:49;;;;;;;3.47;2.57;;;10.60;99.90;;;;;;5010868;28;20214;-87
2024/03/15 05:39:14;;;;;;;3.83;2.73;;;10.70;99.90;;;;;;5013009;28;20266;-87
2024/03/15 05:41:40;;;;;;;2.60;2.40;;;11.30;99.90;;;;;;5010538;28;20245;-86
2024/03/15 05:44:06;;;;;;;2.50;2.30;;;11.20;99.90;;;;;;5014281;28;20242;-86
2024/03/15 05:46:32;;;;;;;2.63;2.33;;;10.60;99.90;;;;;;5012192;28;20195;-86
2024/03/15 05:48:58;;;;;;;2.90;2.40;;;10.90;99.90;;;;;;5010343;28;20220;-85
2024/03/15 05:51:23;;;;;;;2.97;2.67;;;10.80;99.90;;;;;;5013096;28;20188;-86
2024/03/15 05:53:49;;;;;;;3.60;2.87;;;10.70;99.90;;;;;;5012784;28;20199;-86
2024/03/15 05:56:15;;;;;;;3.20;2.73;;;10.40;99.90;;;;;;5013180;28;20239;-84
2024/03/15 05:58:41;;;;;;;7.50;2.90;;;10.30;99.90;;;;;;5006669;28;20185;-85
2024/03/15 06:01:06;;;;;;;3.42;3.10;;;10.80;99.90;;;;;;5012974;28;20197;-84
2024/03/15 06:03:32;;;;;;;4.10;2.67;;;10.60;99.90;;;;;;5013544;28;20231;-85
2024/03/15 06:05:58;;;;;;;6.97;3.33;;;10.20;99.90;;;;;;5012774;28;20291;-86
2024/03/15 06:08:26;;;;;;;3.65;2.65;;;10.40;99.90;;;;;;5011428;28;20211;-84
2024/03/15 06:10:53;;;;;;;2.90;2.60;;;10.90;99.90;;;;;;5011660;28;20185;-85
2024/03/15 06:13:19;;;;;;;4.50;3.50;;;10.70;99.90;;;;;;5011626;28;20233;-85
2024/03/15 06:15:45;;;;;;;3.87;2.47;;;10.30;99.90;;;;;;5009589;28;20303;-84
2024/03/15 06:18:10;;;;;;;5.03;2.80;;;10.60;99.90;;;;;;5014137;28;20439;-85
2024/03/15 06:20:36;;;;;;;3.50;2.70;;;10.60;99.90;;;;;;5008245;28;20180;-86
2024/03/15 06:23:02;;;;;;;3.10;2.55;;;10.70;99.90;;;;;;5010699;28;20637;-84
2024/03/15 06:25:29;;;;;;;5.07;3.50;;;10.80;99.90;;;;;;5012592;28;20230;-84
2024/03/15 06:27:55;;;;;;;4.38;3.03;;;11.20;99.90;;;;;;5017622;28;20606;-84
2024/03/15 06:30:20;;;;;;;2.83;2.50;;;10.80;99.90;;;;;;5013055;28;20188;-85
2024/03/15 06:32:46;;;;;;;2.97;2.63;;;10.80;99.90;;;;;;5012853;28;20450;-86
2024/03/15 06:35:27;;;;;;;3.40;3.10;;;11.20;99.90;;;;;;5016350;28;20451;-85
2024/03/15 06:38:06;;;;;;;3.83;2.65;;;11.30;99.90;;;;;;5010843;28;20255;-85
2024/03/15 06:40:45;;;;;;;3.95;2.70;;;11.00;99.90;;;;;;5026233;28;20285;-84
2024/03/15 06:43:13;;;;;;;5.35;3.67;;;10.90;99.90;;;;;;5027257;28;20199;-85
2024/03/15 06:48:20;;;;;;;3.55;2.95;;;11.50;99.90;;;;;;5020621;28;20227;-82
2024/03/15 06:50:48;;;;;;;6.18;3.15;;;10.90;99.90;;;;;;5009175;28;20219;-83
2024/03/15 06:53:19;;;;;;;5.15;2.85;;;11.30;99.90;;;;;;5009089;28;20224;-84
2024/03/15 06:55:45;;;;;;;6.20;3.40;;;10.90;99.90;;;;;;5007685;28;20283;-83
2024/03/15 06:58:12;;;;;;;4.03;3.30;;;11.30;99.90;;;;;;5006954;28;20227;-83
2024/03/15 07:00:37;;;;;;;3.05;2.70;;;11.70;99.90;;;;;;5009032;28;20192;-84
2024/03/15 07:03:04;;;;;;;4.77;3.00;;;10.90;99.90;;;;;;5021655;28;20565;-84
2024/03/15 07:05:31;;;;;;;8.20;2.80;;;11.40;99.90;;;;;;5012355;28;20208;-84
2024/03/15 07:07:57;;;;;;;3.75;3.05;;;11.30;99.90;;;;;;5022643;28;20190;-84
2024/03/15 07:10:22;;;;;;;7.10;3.33;;;11.50;99.90;;;;;;5008928;28;20187;-79
2024/03/15 07:12:49;;;;;;;3.20;3.00;;;11.40;99.90;;;;;;5012839;28;20267;-78
2024/03/15 07:15:15;;;;;;;4.90;3.92;;;11.10;99.90;;;;;;5007238;28;20265;-79
2024/03/15 07:17:43;;;;;;;4.40;3.50;;;11.40;99.90;;;;;;5023916;28;20273;-79
2024/03/15 07:20:12;;;;;;;4.75;3.38;;;12.70;99.90;;;;;;4994504;28;20656;-79
2024/03/15 07:22:42;;;;;;;8.02;4.93;;;13.20;99.90;;;;;;5010771;28;20249;-78
2024/03/15 07:25:10;;;;;;;4.00;3.60;;;14.60;99.90;;;;;;5007956;28;20212;-79
2024/03/15 07:27:40;;;;;;;3.05;2.80;;;15.60;99.90;;;;;;5011867;28;20175;-80
2024/03/15 07:30:08;;;;;;;4.90;3.20;;;18.00;97.40;;;;;;5007089;28;20744;-80
2024/03/15 07:32:36;;;;;;;5.57;3.05;;;19.50;93.80;;;;;;5011279;28;20179;-79
2024/03/15 07:35:04;;;;;;;4.03;3.70;;;21.10;90.80;;;;;;5012739;28;20245;-79
2024/03/15 07:37:29;;;;;;;4.50;3.60;;;21.60;88.40;;;;;;5006964;28;20205;-82
2024/03/15 07:39:55;;;;;;;2.30;2.10;;;23.00;82.20;;;;;;5011749;28;20442;-80
2024/03/15 07:42:20;;;;;;;5.53;2.63;;;22.90;77.20;;;;;;5007812;28;20586;-80
2024/03/15 07:44:48;;;;;;;4.70;3.30;;;24.20;74.40;;;;;;5007653;28;20209;-87
2024/03/15 07:47:15;;;;;;;2.13;1.97;;;25.20;71.60;;;;;;5005206;28;20205;-85
2024/03/15 07:49:40;;;;;;;4.53;2.63;;;25.40;64.80;;;;;;5007338;28;20491;-86
2024/03/15 07:52:07;;;;;;;2.90;2.70;;;24.90;66.10;;;;;;5004559;28;20475;-86
2024/03/15 07:54:33;;;;;;;3.23;2.70;;;24.50;65.40;;;;;;5004914;28;20215;-87
2024/03/15 07:56:58;;;;;;;4.63;2.80;;;24.50;65.70;;;;;;5005545;28;20484;-87
2024/03/15 07:59:24;;;;;;;3.60;2.87;;;24.90;65.70;;;;;;5009563;28;20210;-84
2024/03/15 08:01:49;;;;;;;2.47;2.27;;;25.00;64.40;;;;;;5005970;28;20314;-81
2024/03/15 08:04:15;;;;;;;2.47;2.27;;;25.00;63.80;;;;;;5015369;28;20209;-80
2024/03/15 08:06:41;;;;;;;4.17;1.97;;;25.30;63.50;;;;;;5017371;28;20253;-80
2024/03/15 08:09:06;;;;;;;2.13;1.83;;;24.70;62.00;;;;;;5008882;28;20196;-80
2024/03/15 08:11:36;;;;;;;2.40;2.20;;;24.80;63.00;;;;;;5013964;28;20629;-80
2024/03/15 08:14:02;;;;;;;2.23;2.03;;;25.20;62.00;;;;;;5009419;28;20194;-81
2024/03/15 08:16:34;;;;;;;2.30;2.10;;;24.20;62.00;;;;;;5010602;28;20505;-82
2024/03/15 08:19:02;;;;;;;2.37;2.00;;;23.50;63.60;;;;;;5011554;28;20457;-83
2024/03/15 08:21:27;;;;;;;2.40;2.20;;;23.30;65.60;;;;;;5014540;28;20468;-84
2024/03/15 08:23:53;;;;;;;2.40;2.17;;;22.60;68.60;;;;;;5010164;28;21053;-84
2024/03/15 08:26:20;;;;;;;2.50;2.20;;;22.70;66.80;;;;;;5012711;28;20280;-82
2024/03/15 08:28:49;;;;;;;3.87;2.23;;;22.50;66.40;;;;;;5012853;28;20178;-82
2024/03/15 08:31:16;;;;;;;3.33;2.20;;;22.70;67.40;;;;;;5011044;28;20473;-82
2024/03/15 08:33:41;;;;;;;2.83;2.53;;;22.80;68.90;;;;;;5011704;28;20442;-81
2024/03/15 08:36:07;;;;;;;2.70;2.50;;;21.90;69.00;;;;;;5014648;28;20461;-83
2024/03/15 08:38:32;;;;;;;2.73;2.30;;;21.40;70.30;;;;;;5011468;28;20191;-80
2024/03/15 08:40:58;;;;;;;2.37;2.17;;;21.20;72.10;;;;;;5010927;28;20286;-81
2024/03/15 08:43:23;;;;;;;6.20;2.20;;;22.70;74.00;;;;;;5009960;28;20195;-80
2024/03/15 08:45:49;;;;;;;3.07;2.27;;;20.70;73.20;;;;;;5003486;28;20203;-82
2024/03/15 08:48:17;;;;;;;2.50;2.30;;;21.20;76.10;;;;;;5011817;28;20210;-82
2024/03/15 08:50:46;;;;;;;2.53;2.10;;;22.20;74.40;;;;;;5008407;28;20187;-82
2024/03/15 08:53:12;;;;;;;2.20;1.90;;;21.50;73.40;;;;;;5007099;28;20476;-82
2024/03/15 08:55:39;;;;;;;2.23;1.60;;;21.60;73.60;;;;;;5014408;28;20426;-80
2024/03/15 08:58:04;;;;;;;3.10;2.20;;;21.30;73.80;;;;;;5013185;28;20179;-82
2024/03/15 09:00:30;;;;;;;2.50;2.30;;;21.30;75.00;;;;;;5009625;28;20206;-82
2024/03/15 09:02:55;;;;;;;2.00;1.80;;;21.70;75.00;;;;;;5008334;28;20663;-82
2024/03/15 09:05:21;;;;;;;3.00;2.73;;;21.80;73.40;;;;;;5011086;28;20672;-82
2024/03/15 09:07:47;;;;;;;4.23;2.20;;;21.60;74.10;;;;;;5007466;28;20186;-82
2024/03/15 09:10:15;;;;;;;3.83;2.60;;;21.70;73.20;;;;;;5012036;28;20260;-81
2024/03/15 09:12:45;;;;;;;4.37;1.93;;;21.10;74.60;;;;;;5010141;28;21006;-82
2024/03/15 09:15:17;;;;;;;2.20;2.00;;;21.30;75.70;;;;;;5010220;28;20446;-82
2024/03/15 09:17:44;;;;;;;2.17;1.97;;;22.10;75.20;;;;;;5029138;28;20888;-81
2024/03/15 09:20:33;;;;;;;2.83;2.17;;;22.30;74.10;;;;;;5010068;28;20445;-80
2024/03/15 09:23:01;;;;;;;2.20;2.00;;;22.00;73.00;;;;;;5011776;28;20967;-83
2024/03/15 09:25:27;;;;;;;1.93;1.83;;;22.40;72.40;;;;;;5012185;28;20465;-82
2024/03/15 09:27:53;;;;;;;3.50;1.60;;;22.50;72.40;;;;;;5010102;28;20805;-82
2024/03/15 09:30:26;;;;;;;3.33;1.67;;;22.60;71.90;;;;;;5013452;28;20438;-82
2024/03/15 09:32:51;;;;;;;1.80;1.70;;;22.80;71.00;;;;;;5010418;28;20197;-82
2024/03/15 09:35:17;;;;;;;2.63;1.93;;;22.90;70.00;;;;;;5013483;28;20533;-82
2024/03/15 09:37:53;;;;;;;1.80;1.70;;;23.20;70.80;;;;;;5008599;28;20200;-83
2024/03/15 09:40:20;;;;;;;4.87;1.80;;;23.10;69.40;;;;;;5010046;28;21237;-83
2024/03/15 09:42:48;;;;;;;2.30;2.07;;;23.30;69.40;;;;;;5009630;28;20449;-83
2024/03/15 09:45:16;;;;;;;2.30;2.10;;;23.20;69.10;;;;;;5012482;28;20561;-82
2024/03/15 09:47:43;;;;;;;2.30;2.10;;;23.90;69.20;;;;;;5010019;28;20498;-81
2024/03/15 09:50:18;;;;;;;2.10;1.70;;;24.60;66.90;;;;;;5009889;28;20465;-82
2024/03/15 09:52:45;;;;;;;2.77;1.70;;;24.90;65.30;;;;;;5027226;28;20834;-80
2024/03/15 09:55:16;;;;;;;2.80;2.00;;;25.30;64.20;;;;;;5012939;28;20492;-81
2024/03/15 09:57:46;;;;;;;2.50;2.30;;;24.10;65.50;;;;;;5012046;28;20452;-82
2024/03/15 10:00:23;;;;;;;1.90;1.70;;;23.80;66.20;;;;;;5012664;28;20948;-83
2024/03/15 10:02:52;;;;;;;2.10;1.90;;;24.00;65.80;;;;;;5014120;28;20441;-83
2024/03/15 10:05:23;;;;;;;2.20;1.80;;;23.80;66.20;;;;;;5011547;28;20993;-83
2024/03/15 10:07:49;;;;;;;2.60;2.40;;;22.80;67.70;;;;;;5007710;28;20446;-81
2024/03/15 10:10:16;;;;;;;3.33;2.40;;;22.60;68.80;;;;;;5010157;28;20452;-85
2024/03/15 10:12:47;;;;;;;2.63;1.60;;;22.10;69.80;;;;;;5013729;28;20525;-84
2024/03/15 10:15:17;;;;;;;2.70;1.88;;;21.50;71.20;;;;;;5009647;28;20442;-84
2024/03/15 10:17:48;;;;;;;2.85;1.85;;;21.10;74.50;;;;;;5010818;28;20187;-85
2024/03/15 10:20:16;;;;;;;2.22;2.05;;;20.50;76.20;;;;;;5013860;28;20186;-85
2024/03/15 10:22:42;;;;;;;2.17;1.90;;;20.50;78.80;;;;;;5010811;28;20736;-86
2024/03/15 10:25:18;;;;;;;2.80;2.00;;;20.40;80.10;;;;;;5012390;28;20230;-85
2024/03/15 10:27:53;;;;;;;2.97;1.60;;;19.80;81.30;;;;;;5013532;28;20206;-87
2024/03/15 10:30:22;;;;;;;3.08;1.90;;;19.40;82.90;;;;;;5006937;28;20184;-87
2024/03/15 10:32:49;;;;;;;2.75;1.55;;;19.40;84.10;;;;;;5008620;28;20713;-86
2024/03/15 10:35:19;;;;;;;1.60;1.50;;;19.60;84.20;;;;;;5015499;28;20206;-86
2024/03/15 10:37:45;;;;;;;1.77;1.67;;;18.60;82.70;;;;;;5013386;28;20191;-86
2024/03/15 10:40:22;;;;;;;2.28;1.40;;;19.40;85.00;;;;;;5011116;28;20194;-85
2024/03/15 10:42:52;;;;;;;2.80;1.30;;;19.40;85.40;;;;;;5012337;28;20233;-86
2024/03/15 10:45:19;;;;;;;2.38;1.80;;;19.00;84.20;;;;;;5007380;28;20258;-86
2024/03/15 10:47:45;;;;;;;2.40;1.70;;;19.30;84.90;;;;;;5022346;28;20183;-86
2024/03/15 10:50:16;;;;;;;1.40;1.30;;;19.00;84.50;;;;;;5006459;28;20214;-85
2024/03/15 10:52:48;;;;;;;2.17;1.80;;;18.90;86.50;;;;;;5004505;28;20193;-86
2024/03/15 10:55:22;;;;;;;2.00;1.60;;;19.30;89.30;;;;;;4993201;28;20685;-87
2024/03/15 10:57:50;;;;;;;2.03;1.40;;;19.20;89.50;;;;;;5009137;28;20195;-86
2024/03/15 11:00:18;;;;;;;2.28;2.00;;;19.30;89.30;;;;;;5004343;28;21458;-87
2024/03/15 11:02:44;;;;;;;2.50;2.30;;;18.80;88.90;;;;;;5012177;28;20187;-86
2024/03/15 11:05:31;;;;;;;3.07;2.00;;;18.70;89.60;;;;;;5001121;28;20317;-87
2024/03/15 11:08:15;;;;;;;2.80;2.00;;;18.30;90.30;;;;;;4995664;28;20742;-83
2024/03/15 11:10:54;;;;;;;2.33;1.55;;;18.80;91.40;;;;;;5006139;28;20180;-84
2024/03/15 11:13:20;;;;;;;2.83;1.52;;;18.30;91.10;;;;;;5010109;28;20187;-84
2024/03/15 11:15:46;;;;;;;2.53;2.33;;;18.30;91.10;;;;;;5008009;28;20215;-84
2024/03/15 11:18:14;;;;;;;2.60;1.90;;;18.10;91.50;;;;;;5012873;28;20193;-83
2024/03/15 11:20:54;;;;;;;2.05;1.75;;;18.10;91.40;;;;;;5008874;28;20191;-84
2024/03/15 11:23:22;;;;;;;1.60;1.50;;;18.10;90.90;;;;;;5013232;28;20189;-83
2024/03/15 11:25:54;;;;;;;2.33;1.63;;;18.20;91.30;;;;;;5012431;28;20202;-83
2024/03/15 11:28:21;;;;;;;3.60;2.33;;;18.10;90.80;;;;;;5013424;28;20746;-82
2024/03/15 11:30:47;;;;;;;2.17;1.90;;;18.80;90.30;;;;;;5023279;28;20206;-82
2024/03/15 11:33:13;;;;;;;3.13;1.90;;;19.10;90.00;;;;;;5007900;28;20603;-83
2024/03/15 11:35:40;;;;;;;3.07;2.00;;;19.30;90.10;;;;;;5011181;28;20491;-83
2024/03/15 11:38:13;;;;;;;2.00;1.85;;;18.70;89.00;;;;;;5010175;28;20537;-83
2024/03/15 11:40:40;;;;;;;3.00;2.80;;;19.30;88.50;;;;;;5010244;28;20199;-83
2024/03/15 11:43:10;;;;;;;1.92;1.65;;;20.00;87.30;;;;;;5015572;28;20187;-83
2024/03/15 11:45:37;;;;;;;2.15;1.95;;;19.80;85.70;;;;;;5009523;28;20314;-82
2024/03/15 11:48:18;;;;;;;2.58;1.75;;;20.20;85.80;;;;;;5009558;28;20543;-82
2024/03/15 11:50:51;;;;;;;2.63;2.22;;;20.10;84.70;;;;;;5011812;28;20190;-82
2024/03/15 11:53:18;;;;;;;1.83;1.73;;;19.60;84.10;;;;;;4995312;28;20248;-87
2024/03/15 11:55:45;;;;;;;2.53;1.50;;;19.50;84.50;;;;;;5014714;28;20211;-85
2024/03/15 11:58:13;;;;;;;2.35;2.08;;;19.40;84.20;;;;;;5014263;28;20190;-86
2024/03/15 12:00:39;;;;;;;2.00;1.80;;;19.70;85.50;;;;;;5006376;28;20270;-86
2024/03/15 12:03:07;;;;;;;2.10;1.77;;;20.00;85.70;;;;;;5007680;28;20184;-87
2024/03/15 12:05:36;;;;;;;1.75;1.65;;;19.80;85.30;;;;;;5011131;28;20241;-87
2024/03/15 12:08:03;;;;;;;1.60;1.50;;;20.10;85.60;;;;;;5009907;28;20183;-87
2024/03/15 12:10:29;;;;;;;3.10;1.80;;;19.50;85.40;;;;;;5011151;28;20188;-87
2024/03/15 12:12:54;;;;;;;1.90;1.60;;;19.90;85.30;;;;;;5008544;28;20190;-86
2024/03/15 12:15:30;;;;;;;2.67;1.70;;;20.10;82.40;;;;;;5011071;28;21185;-85
2024/03/15 12:18:00;;;;;;;1.60;1.50;;;20.10;83.40;;;;;;5010951;28;20215;-86
2024/03/15 12:20:27;;;;;;;1.73;1.45;;;20.20;82.80;;;;;;5005999;28;20196;-87
2024/03/15 12:22:53;;;;;;;2.13;1.58;;;20.60;80.50;;;;;;5008841;28;20183;-87
2024/03/15 12:25:19;;;;;;;1.90;1.80;;;20.30;80.00;;;;;;5007999;28;20575;-88
2024/03/15 12:27:44;;;;;;;1.73;1.30;;;20.40;80.10;;;;;;5009913;28;20443;-86
2024/03/15 12:30:14;;;;;;;1.60;1.50;;;19.80;79.20;;;;;;5012181;28;20196;-85
2024/03/15 12:32:40;;;;;;;1.40;1.30;;;19.80;81.20;;;;;;5016363;28;20233;-85
2024/03/15 12:35:08;;;;;;;1.73;1.40;;;19.80;81.40;;;;;;5018274;28;20244;-85
2024/03/15 12:37:34;;;;;;;6.40;4.60;;;19.20;81.40;;;;;;5015348;28;20234;-88
2024/03/15 12:40:00;;;;;;;1.93;1.50;;;19.60;83.00;;;;;;4995310;28;20184;-85
2024/03/15 12:42:26;;;;;;;3.73;1.53;;;19.50;82.30;;;;;;5018249;28;20501;-85
2024/03/15 12:44:54;;;;;;;2.70;1.60;;;19.80;82.60;;;;;;5014887;28;20711;-85
2024/03/15 12:47:20;;;;;;;1.83;1.50;;;19.70;81.60;;;;;;5014281;28;20314;-87
2024/03/15 12:49:46;;;;;;;1.63;1.53;;;19.70;82.10;;;;;;5016424;28;20230;-85
2024/03/15 12:52:15;;;;;;;2.00;1.80;;;19.90;82.20;;;;;;5018029;28;20204;-86